sensor_id;sensor_type;location;lat;lon;timestamp;pressure;altitude;pressure_sealevel;temperature;humidity
52535;BME280;38443;53.164;5.802;2023-03-15T00:01:20;101089.34;;;1.22;100.00
52535;BME280;38443;53.164;5.802;2023-03-15T00:03:47;101096.41;;;1.23;100.00
52535;BME280;38443;53.164;5.802;2023-03-15T00:06:12;101104.34;;;1.26;100.00
52535;BME280;38443;53.164;5.802;2023-03-15T00:08:38;101111.41;;;1.29;100.00
52535;BME280;38443;53.164;5.802;2023-03-15T00:11:04;101112.28;;;1.28;100.00
52535;BME280;38443;53.164;5.802;2023-03-15T00:13:30;101124.53;;;1.26;100.00
52535;BME280;38443;53.164;5.802;2023-03-15T00:15:58;101124.53;;;1.23;100.00
52535;BME280;38443;53.164;5.802;2023-03-15T00:18:25;101128.88;;;1.22;100.00
52535;BME280;38443;53.164;5.802;2023-03-15T00:20:50;101129.75;;;1.19;100.00
52535;BME280;38443;53.164;5.802;2023-03-15T00:23:16;101128.81;;;1.14;100.00
52535;BME280;38443;53.164;5.802;2023-03-15T00:25:46;101134.94;;;1.13;100.00
52535;BME280;38443;53.164;5.802;2023-03-15T00:28:12;101134.91;;;1.10;100.00
52535;BME280;38443;53.164;5.802;2023-03-15T00:30:37;101138.38;;;1.08;100.00
52535;BME280;38443;53.164;5.802;2023-03-15T00:33:03;101136.53;;;1.02;100.00
52535;BME280;38443;53.164;5.802;2023-03-15T00:35:31;101136.53;;;1.02;100.00
52535;BME280;38443;53.164;5.802;2023-03-15T00:37:57;101148.78;;;0.98;100.00
52535;BME280;38443;53.164;5.802;2023-03-15T00:40:23;101154.81;;;0.91;100.00
52535;BME280;38443;53.164;5.802;2023-03-15T00:42:49;101162.69;;;0.88;100.00
52535;BME280;38443;53.164;5.802;2023-03-15T00:45:15;101156.50;;;0.85;100.00
52535;BME280;38443;53.164;5.802;2023-03-15T00:47:40;101163.47;;;0.84;100.00
52535;BME280;38443;53.164;5.802;2023-03-15T00:50:06;101171.38;;;0.83;100.00
52535;BME280;38443;53.164;5.802;2023-03-15T00:52:36;101172.19;;;0.80;100.00
52535;BME280;38443;53.164;5.802;2023-03-15T00:55:02;101178.34;;;0.79;100.00
52535;BME280;38443;53.164;5.802;2023-03-15T00:57:28;101176.53;;;0.75;100.00
52535;BME280;38443;53.164;5.802;2023-03-15T00:59:53;101181.72;;;0.70;100.00
52535;BME280;38443;53.164;5.802;2023-03-15T01:02:18;101189.59;;;0.69;100.00
52535;BME280;38443;53.164;5.802;2023-03-15T01:04:47;101204.63;;;0.76;100.00
52535;BME280;38443;53.164;5.802;2023-03-15T01:07:12;101212.78;;;0.91;100.00
52535;BME280;38443;53.164;5.802;2023-03-15T01:09:37;101210.25;;;0.97;100.00
52535;BME280;38443;53.164;5.802;2023-03-15T01:12:03;101219.91;;;0.97;100.00
52535;BME280;38443;53.164;5.802;2023-03-15T01:14:28;101218.13;;;0.96;100.00
52535;BME280;38443;53.164;5.802;2023-03-15T01:16:54;101230.44;;;0.95;100.00
52535;BME280;38443;53.164;5.802;2023-03-15T01:19:19;101246.22;;;0.92;100.00
52535;BME280;38443;53.164;5.802;2023-03-15T01:21:44;101254.84;;;0.85;100.00
52535;BME280;38443;53.164;5.802;2023-03-15T01:24:13;101283.66;;;0.74;100.00
52535;BME280;38443;53.164;5.802;2023-03-15T01:26:39;101274.75;;;0.66;100.00
52535;BME280;38443;53.164;5.802;2023-03-15T01:29:04;101260.47;;;0.55;100.00
52535;BME280;38443;53.164;5.802;2023-03-15T01:31:30;101276.25;;;0.53;100.00
52535;BME280;38443;53.164;5.802;2023-03-15T01:33:56;101274.38;;;0.48;100.00
52535;BME280;38443;53.164;5.802;2023-03-15T01:36:22;101277.00;;;0.48;100.00
52535;BME280;38443;53.164;5.802;2023-03-15T01:38:47;101282.28;;;0.48;100.00
52535;BME280;38443;53.164;5.802;2023-03-15T01:41:17;101278.75;;;0.47;100.00
52535;BME280;38443;53.164;5.802;2023-03-15T01:43:43;101282.28;;;0.48;100.00
52535;BME280;38443;53.164;5.802;2023-03-15T01:46:26;101291.09;;;0.48;100.00
52535;BME280;38443;53.164;5.802;2023-03-15T01:49:15;101301.63;;;0.48;100.00
52535;BME280;38443;53.164;5.802;2023-03-15T01:51:45;101290.19;;;0.48;100.00
52535;BME280;38443;53.164;5.802;2023-03-15T01:54:25;101299.78;;;0.46;100.00
52535;BME280;38443;53.164;5.802;2023-03-15T01:59:39;101302.28;;;0.38;100.00
52535;BME280;38443;53.164;5.802;2023-03-15T02:02:08;101296.94;;;0.33;100.00
52535;BME280;38443;53.164;5.802;2023-03-15T02:04:44;101302.03;;;0.26;100.00
52535;BME280;38443;53.164;5.802;2023-03-15T02:07:12;101300.19;;;0.22;100.00
52535;BME280;38443;53.164;5.802;2023-03-15T02:12:14;101298.25;;;0.11;100.00
52535;BME280;38443;53.164;5.802;2023-03-15T02:14:39;101302.53;;;0.06;100.00
52535;BME280;38443;53.164;5.802;2023-03-15T02:17:05;101298.94;;;0.03;100.00
52535;BME280;38443;53.164;5.802;2023-03-15T02:22:04;101309.25;;;-0.07;100.00
52535;BME280;38443;53.164;5.802;2023-03-15T02:27:11;101308.31;;;-0.10;100.00
52535;BME280;38443;53.164;5.802;2023-03-15T02:29:36;101310.88;;;-0.13;100.00
52535;BME280;38443;53.164;5.802;2023-03-15T02:32:01;101317.09;;;-0.10;100.00
52535;BME280;38443;53.164;5.802;2023-03-15T02:34:29;101315.31;;;-0.11;100.00
52535;BME280;38443;53.164;5.802;2023-03-15T02:36:56;101316.19;;;-0.10;100.00
52535;BME280;38443;53.164;5.802;2023-03-15T02:39:21;101330.25;;;-0.10;100.00
52535;BME280;38443;53.164;5.802;2023-03-15T02:41:51;101339.06;;;-0.08;100.00
52535;BME280;38443;53.164;5.802;2023-03-15T02:44:18;101342.63;;;-0.04;100.00
52535;BME280;38443;53.164;5.802;2023-03-15T02:46:47;101334.78;;;-0.03;100.00
52535;BME280;38443;53.164;5.802;2023-03-15T02:49:14;101341.88;;;0.00;100.00
52535;BME280;38443;53.164;5.802;2023-03-15T02:51:41;101350.69;;;0.02;100.00
52535;BME280;38443;53.164;5.802;2023-03-15T02:54:06;101349.81;;;0.03;100.00
52535;BME280;38443;53.164;5.802;2023-03-15T02:56:31;101360.44;;;0.08;100.00
52535;BME280;38443;53.164;5.802;2023-03-15T02:58:58;101367.63;;;0.15;100.00
52535;BME280;38443;53.164;5.802;2023-03-15T03:01:23;101366.75;;;0.16;100.00
52535;BME280;38443;53.164;5.802;2023-03-15T03:03:48;101372.09;;;0.19;100.00
52535;BME280;38443;53.164;5.802;2023-03-15T03:06:16;101372.91;;;0.15;100.00
52535;BME280;38443;53.164;5.802;2023-03-15T03:08:42;101375.44;;;0.12;100.00
52535;BME280;38443;53.164;5.802;2023-03-15T03:11:15;101369.22;;;0.07;100.00
52535;BME280;38443;53.164;5.802;2023-03-15T03:13:41;101389.25;;;0.00;100.00
52535;BME280;38443;53.164;5.802;2023-03-15T03:16:07;101403.16;;;-0.06;100.00
52535;BME280;38443;53.164;5.802;2023-03-15T03:18:32;101399.41;;;-0.15;100.00
52535;BME280;38443;53.164;5.802;2023-03-15T03:21:01;101414.19;;;-0.21;100.00
52535;BME280;38443;53.164;5.802;2023-03-15T03:23:29;101417.53;;;-0.28;100.00
52535;BME280;38443;53.164;5.802;2023-03-15T03:25:55;101429.63;;;-0.34;100.00
52535;BME280;38443;53.164;5.802;2023-03-15T03:28:23;101428.63;;;-0.39;100.00
52535;BME280;38443;53.164;5.802;2023-03-15T03:30:49;101441.69;;;-0.43;100.00
52535;BME280;38443;53.164;5.802;2023-03-15T03:33:15;101451.25;;;-0.46;100.00
52535;BME280;38443;53.164;5.802;2023-03-15T03:35:40;101453.75;;;-0.51;100.00
52535;BME280;38443;53.164;5.802;2023-03-15T03:38:07;101461.59;;;-0.54;100.00
52535;BME280;38443;53.164;5.802;2023-03-15T03:40:32;101461.44;;;-0.58;100.00
52535;BME280;38443;53.164;5.802;2023-03-15T03:42:57;101470.09;;;-0.63;100.00
52535;BME280;38443;53.164;5.802;2023-03-15T03:45:23;101470.97;;;-0.64;100.00
52535;BME280;38443;53.164;5.802;2023-03-15T03:47:48;101481.44;;;-0.65;100.00
52535;BME280;38443;53.164;5.802;2023-03-15T03:50:16;101477.88;;;-0.67;100.00
52535;BME280;38443;53.164;5.802;2023-03-15T03:52:41;101479.53;;;-0.71;100.00
52535;BME280;38443;53.164;5.802;2023-03-15T03:55:10;101482.88;;;-0.76;100.00
52535;BME280;38443;53.164;5.802;2023-03-15T03:57:38;101484.47;;;-0.83;100.00
52535;BME280;38443;53.164;5.802;2023-03-15T04:00:04;101484.38;;;-0.86;100.00
52535;BME280;38443;53.164;5.802;2023-03-15T04:02:29;101483.34;;;-0.91;100.00
52535;BME280;38443;53.164;5.802;2023-03-15T04:04:55;101494.63;;;-0.95;100.00
52535;BME280;38443;53.164;5.802;2023-03-15T04:07:20;101496.31;;;-0.97;100.00
52535;BME280;38443;53.164;5.802;2023-03-15T04:09:45;101494.50;;;-1.00;100.00
52535;BME280;38443;53.164;5.802;2023-03-15T04:12:11;101503.16;;;-1.03;100.00
52535;BME280;38443;53.164;5.802;2023-03-15T04:14:36;101511.88;;;-1.05;100.00
52535;BME280;38443;53.164;5.802;2023-03-15T04:17:02;101518.75;;;-1.09;100.00
52535;BME280;38443;53.164;5.802;2023-03-15T04:19:29;101513.56;;;-1.07;100.00
52535;BME280;38443;53.164;5.802;2023-03-15T04:21:55;101521.38;;;-1.09;100.00
52535;BME280;38443;53.164;5.802;2023-03-15T04:24:20;101524.00;;;-1.09;100.00
52535;BME280;38443;53.164;5.802;2023-03-15T04:26:45;101531.84;;;-1.10;100.00
52535;BME280;38443;53.164;5.802;2023-03-15T04:29:10;101536.25;;;-1.09;100.00
52535;BME280;38443;53.164;5.802;2023-03-15T04:31:36;101530.06;;;-1.11;100.00
52535;BME280;38443;53.164;5.802;2023-03-15T04:34:03;101536.22;;;-1.11;100.00
52535;BME280;38443;53.164;5.802;2023-03-15T04:36:29;101544.09;;;-1.11;100.00
52535;BME280;38443;53.164;5.802;2023-03-15T04:38:54;101544.97;;;-1.10;100.00
52535;BME280;38443;53.164;5.802;2023-03-15T04:41:30;101550.09;;;-1.15;100.00
52535;BME280;38443;53.164;5.802;2023-03-15T04:43:56;101558.03;;;-1.13;100.00
52535;BME280;38443;53.164;5.802;2023-03-15T04:46:21;101556.34;;;-1.11;100.00
52535;BME280;38443;53.164;5.802;2023-03-15T04:48:46;101552.78;;;-1.13;100.00
52535;BME280;38443;53.164;5.802;2023-03-15T04:51:11;101558.03;;;-1.13;100.00
52535;BME280;38443;53.164;5.802;2023-03-15T04:53:37;101560.56;;;-1.16;100.00
52535;BME280;38443;53.164;5.802;2023-03-15T04:56:04;101556.97;;;-1.20;100.00
52535;BME280;38443;53.164;5.802;2023-03-15T04:58:29;101566.63;;;-1.19;100.00
52535;BME280;38443;53.164;5.802;2023-03-15T05:00:55;101563.91;;;-1.22;100.00
52535;BME280;38443;53.164;5.802;2023-03-15T05:03:20;101570.06;;;-1.22;100.00
52535;BME280;38443;53.164;5.802;2023-03-15T05:05:45;101573.44;;;-1.26;100.00
52535;BME280;38443;53.164;5.802;2023-03-15T05:08:10;101572.56;;;-1.25;100.00
52535;BME280;38443;53.164;5.802;2023-03-15T05:10:36;101573.38;;;-1.27;100.00
52535;BME280;38443;53.164;5.802;2023-03-15T05:13:01;101585.69;;;-1.25;100.00
52535;BME280;38443;53.164;5.802;2023-03-15T05:15:27;101586.50;;;-1.27;100.00
52535;BME280;38443;53.164;5.802;2023-03-15T05:17:52;101593.63;;;-1.23;100.00
52535;BME280;38443;53.164;5.802;2023-03-15T05:20:20;101592.75;;;-1.24;100.00
52535;BME280;38443;53.164;5.802;2023-03-15T05:22:46;101596.25;;;-1.23;100.00
52535;BME280;38443;53.164;5.802;2023-03-15T05:25:11;101599.94;;;-1.18;100.00
52535;BME280;38443;53.164;5.802;2023-03-15T05:27:37;101604.25;;;-1.20;100.00
52535;BME280;38443;53.164;5.802;2023-03-15T05:30:03;101605.31;;;-1.13;100.00
52535;BME280;38443;53.164;5.802;2023-03-15T05:32:30;101604.31;;;-1.17;100.00
52535;BME280;38443;53.164;5.802;2023-03-15T05:34:59;101612.19;;;-1.17;100.00
52535;BME280;38443;53.164;5.802;2023-03-15T05:37:25;101605.19;;;-1.18;100.00
52535;BME280;38443;53.164;5.802;2023-03-15T05:39:51;101614.94;;;-1.14;100.00
52535;BME280;38443;53.164;5.802;2023-03-15T05:42:16;101618.44;;;-1.13;100.00
52535;BME280;38443;53.164;5.802;2023-03-15T05:44:46;101614.84;;;-1.17;100.00
52535;BME280;38443;53.164;5.802;2023-03-15T05:47:11;101622.75;;;-1.15;100.00
52535;BME280;38443;53.164;5.802;2023-03-15T05:49:37;101623.50;;;-1.19;100.00
52535;BME280;38443;53.164;5.802;2023-03-15T05:52:02;101626.94;;;-1.22;100.00
52535;BME280;38443;53.164;5.802;2023-03-15T05:54:27;101635.72;;;-1.22;100.00
52535;BME280;38443;53.164;5.802;2023-03-15T05:56:52;101637.34;;;-1.25;100.00
52535;BME280;38443;53.164;5.802;2023-03-15T05:59:18;101642.66;;;-1.24;100.00
52535;BME280;38443;53.164;5.802;2023-03-15T06:01:43;101629.38;;;-1.28;100.00
52535;BME280;38443;53.164;5.802;2023-03-15T06:04:08;101642.47;;;-1.30;100.00
52535;BME280;38443;53.164;5.802;2023-03-15T06:06:34;101632.69;;;-1.34;100.00
52535;BME280;38443;53.164;5.802;2023-03-15T06:08:59;101648.41;;;-1.35;100.00
52535;BME280;38443;53.164;5.802;2023-03-15T06:11:24;101656.13;;;-1.40;100.00
52535;BME280;38443;53.164;5.802;2023-03-15T06:13:50;101655.22;;;-1.41;100.00
52535;BME280;38443;53.164;5.802;2023-03-15T06:16:15;101663.22;;;-1.37;100.00
52535;BME280;38443;53.164;5.802;2023-03-15T06:18:40;101667.56;;;-1.38;100.00
52535;BME280;38443;53.164;5.802;2023-03-15T06:21:05;101672.09;;;-1.34;100.00
52535;BME280;38443;53.164;5.802;2023-03-15T06:23:31;101678.28;;;-1.32;100.00
52535;BME280;38443;53.164;5.802;2023-03-15T06:25:56;101685.41;;;-1.28;100.00
52535;BME280;38443;53.164;5.802;2023-03-15T06:28:21;101672.34;;;-1.26;100.00
52535;BME280;38443;53.164;5.802;2023-03-15T06:30:46;101686.50;;;-0.92;100.00
52535;BME280;38443;53.164;5.802;2023-03-15T06:33:12;101687.31;;;-0.37;100.00
52535;BME280;38443;53.164;5.802;2023-03-15T06:35:40;101692.38;;;0.18;100.00
52535;BME280;38443;53.164;5.802;2023-03-15T06:38:05;101698.97;;;0.71;100.00
52535;BME280;38443;53.164;5.802;2023-03-15T06:40:31;101710.81;;;1.25;100.00
52535;BME280;38443;53.164;5.802;2023-03-15T06:42:56;101700.22;;;1.64;100.00
52535;BME280;38443;53.164;5.802;2023-03-15T06:45:21;101701.13;;;2.09;100.00
52535;BME280;38443;53.164;5.802;2023-03-15T06:47:46;101699.09;;;2.41;100.00
52535;BME280;38443;53.164;5.802;2023-03-15T06:50:11;101684.47;;;2.62;100.00
52535;BME280;38443;53.164;5.802;2023-03-15T06:52:38;101687.50;;;2.86;100.00
52535;BME280;38443;53.164;5.802;2023-03-15T06:55:04;101685.13;;;3.05;100.00
52535;BME280;38443;53.164;5.802;2023-03-15T06:57:29;101691.53;;;3.20;100.00
52535;BME280;38443;53.164;5.802;2023-03-15T06:59:55;101697.19;;;2.86;100.00
52535;BME280;38443;53.164;5.802;2023-03-15T07:02:20;101709.47;;;2.82;100.00
52535;BME280;38443;53.164;5.802;2023-03-15T07:04:46;101706.91;;;2.35;100.00
52535;BME280;38443;53.164;5.802;2023-03-15T07:07:13;101725.44;;;1.92;100.00
52535;BME280;38443;53.164;5.802;2023-03-15T07:09:39;101728.63;;;1.76;100.00
52535;BME280;38443;53.164;5.802;2023-03-15T07:12:05;101723.47;;;1.82;100.00
52535;BME280;38443;53.164;5.802;2023-03-15T07:14:32;101740.03;;;2.17;100.00
52535;BME280;38443;53.164;5.802;2023-03-15T07:16:58;101721.53;;;2.66;100.00
52535;BME280;38443;53.164;5.802;2023-03-15T07:19:23;101712.44;;;2.50;100.00
52535;BME280;38443;53.164;5.802;2023-03-15T07:21:48;101708.53;;;2.77;100.00
52535;BME280;38443;53.164;5.802;2023-03-15T07:24:14;101708.50;;;3.33;100.00
52535;BME280;38443;53.164;5.802;2023-03-15T07:26:39;101710.88;;;3.77;100.00
52535;BME280;38443;53.164;5.802;2023-03-15T07:29:04;101703.50;;;4.30;100.00
52535;BME280;38443;53.164;5.802;2023-03-15T07:31:30;101709.78;;;4.38;100.00
52535;BME280;38443;53.164;5.802;2023-03-15T07:33:55;101711.06;;;4.82;100.00
52535;BME280;38443;53.164;5.802;2023-03-15T07:36:21;101711.97;;;4.87;100.00
52535;BME280;38443;53.164;5.802;2023-03-15T07:38:46;101725.47;;;5.19;100.00
52535;BME280;38443;53.164;5.802;2023-03-15T07:41:12;101722.84;;;5.19;100.00
52535;BME280;38443;53.164;5.802;2023-03-15T07:43:37;101730.06;;;5.40;100.00
52535;BME280;38443;53.164;5.802;2023-03-15T07:46:02;101731.03;;;5.59;100.00
52535;BME280;38443;53.164;5.802;2023-03-15T07:48:27;101717.88;;;5.76;100.00
52535;BME280;38443;53.164;5.802;2023-03-15T07:50:56;101721.47;;;5.86;100.00
52535;BME280;38443;53.164;5.802;2023-03-15T07:53:21;101738.28;;;5.82;100.00
52535;BME280;38443;53.164;5.802;2023-03-15T07:55:47;101736.66;;;6.21;100.00
52535;BME280;38443;53.164;5.802;2023-03-15T07:58:12;101746.41;;;6.18;100.00
52535;BME280;38443;53.164;5.802;2023-03-15T08:00:38;101742.06;;;6.51;100.00
52535;BME280;38443;53.164;5.802;2023-03-15T08:03:03;101756.22;;;6.41;100.00
52535;BME280;38443;53.164;5.802;2023-03-15T08:05:29;101749.19;;;6.62;100.00
52535;BME280;38443;53.164;5.802;2023-03-15T08:07:55;101755.41;;;6.57;100.00
52535;BME280;38443;53.164;5.802;2023-03-15T08:10:20;101761.59;;;6.81;100.00
52535;BME280;38443;53.164;5.802;2023-03-15T08:12:46;101757.19;;;6.68;100.00
52535;BME280;38443;53.164;5.802;2023-03-15T08:15:12;101762.53;;;6.88;100.00
52535;BME280;38443;53.164;5.802;2023-03-15T08:17:39;101764.31;;;6.92;100.00
52535;BME280;38443;53.164;5.802;2023-03-15T08:20:05;101775.81;;;7.09;100.00
52535;BME280;38443;53.164;5.802;2023-03-15T08:22:34;101780.28;;;7.12;100.00
52535;BME280;38443;53.164;5.802;2023-03-15T08:24:59;101775.84;;;7.08;100.00
52535;BME280;38443;53.164;5.802;2023-03-15T08:27:25;101774.06;;;7.28;100.00
52535;BME280;38443;53.164;5.802;2023-03-15T08:29:50;101774.03;;;6.88;100.00
52535;BME280;38443;53.164;5.802;2023-03-15T08:32:17;101787.38;;;6.96;100.00
52535;BME280;38443;53.164;5.802;2023-03-15T08:34:43;101785.59;;;7.04;100.00
52535;BME280;38443;53.164;5.802;2023-03-15T08:37:11;101790.91;;;6.89;100.00
52535;BME280;38443;53.164;5.802;2023-03-15T08:39:37;101787.34;;;7.05;100.00
52535;BME280;38443;53.164;5.802;2023-03-15T08:42:03;101793.59;;;7.10;100.00
52535;BME280;38443;53.164;5.802;2023-03-15T08:44:28;101799.78;;;6.86;100.00
52535;BME280;38443;53.164;5.802;2023-03-15T08:46:54;101798.88;;;6.87;100.00
52535;BME280;38443;53.164;5.802;2023-03-15T08:49:19;101798.00;;;6.90;100.00
52535;BME280;38443;53.164;5.802;2023-03-15T08:51:44;101802.44;;;6.98;100.00
52535;BME280;38443;53.164;5.802;2023-03-15T08:54:09;101795.31;;;6.91;100.00
52535;BME280;38443;53.164;5.802;2023-03-15T08:56:37;101809.56;;;7.06;100.00
52535;BME280;38443;53.164;5.802;2023-03-15T08:59:02;101810.38;;;6.71;100.00
52535;BME280;38443;53.164;5.802;2023-03-15T09:01:28;101804.19;;;6.66;100.00
52535;BME280;38443;53.164;5.802;2023-03-15T09:03:54;101801.47;;;6.61;100.00
52535;BME280;38443;53.164;5.802;2023-03-15T09:06:19;101809.47;;;6.58;100.00
52535;BME280;38443;53.164;5.802;2023-03-15T09:08:45;101809.47;;;6.59;100.00
52535;BME280;38443;53.164;5.802;2023-03-15T09:11:10;101814.69;;;6.35;100.00
52535;BME280;38443;53.164;5.802;2023-03-15T09:13:35;101818.22;;;6.25;100.00
52535;BME280;38443;53.164;5.802;2023-03-15T09:16:00;101817.84;;;5.65;100.00
52535;BME280;38443;53.164;5.802;2023-03-15T09:18:27;101818.56;;;5.40;100.00
52535;BME280;38443;53.164;5.802;2023-03-15T09:20:52;101814.75;;;5.08;100.00
52535;BME280;38443;53.164;5.802;2023-03-15T09:23:18;101812.94;;;5.04;100.00
52535;BME280;38443;53.164;5.802;2023-03-15T09:25:43;101815.63;;;5.08;100.00
52535;BME280;38443;53.164;5.802;2023-03-15T09:28:09;101817.41;;;5.08;100.00
52535;BME280;38443;53.164;5.802;2023-03-15T09:30:37;101817.34;;;5.02;100.00
52535;BME280;38443;53.164;5.802;2023-03-15T09:33:03;101827.94;;;5.00;100.00
52535;BME280;38443;53.164;5.802;2023-03-15T09:35:28;101826.16;;;4.99;100.00
52535;BME280;38443;53.164;5.802;2023-03-15T09:37:53;101827.19;;;5.15;100.00
52535;BME280;38443;53.164;5.802;2023-03-15T09:40:21;101831.72;;;5.28;100.00
52535;BME280;38443;53.164;5.802;2023-03-15T09:43:02;101838.13;;;5.52;100.00
52535;BME280;38443;53.164;5.802;2023-03-15T09:45:54;101839.00;;;5.49;100.00
52535;BME280;38443;53.164;5.802;2023-03-15T09:48:43;101835.31;;;5.32;100.00
52535;BME280;38443;53.164;5.802;2023-03-15T09:51:35;101847.72;;;5.34;100.00
52535;BME280;38443;53.164;5.802;2023-03-15T09:54:07;101846.06;;;5.49;100.00
52535;BME280;38443;53.164;5.802;2023-03-15T09:56:57;101848.63;;;5.41;100.00
52535;BME280;38443;53.164;5.802;2023-03-15T09:59:30;101841.66;;;5.52;100.00
52535;BME280;38443;53.164;5.802;2023-03-15T10:01:57;101841.78;;;5.71;100.00
52535;BME280;38443;53.164;5.802;2023-03-15T10:04:31;101843.63;;;5.81;100.00
52535;BME280;38443;53.164;5.802;2023-03-15T10:07:06;101847.94;;;5.64;100.00
52535;BME280;38443;53.164;5.802;2023-03-15T10:09:35;101853.09;;;5.44;100.00
52535;BME280;38443;53.164;5.802;2023-03-15T10:12:05;101853.91;;;5.36;100.00
52535;BME280;38443;53.164;5.802;2023-03-15T10:20:22;101860.34;;;5.66;100.00
52535;BME280;38443;53.164;5.802;2023-03-15T10:22:58;101858.53;;;5.60;100.00
52535;BME280;38443;53.164;5.802;2023-03-15T10:25:29;101870.09;;;5.64;100.00
52535;BME280;38443;53.164;5.802;2023-03-15T10:28:09;101873.72;;;5.75;100.00
52535;BME280;38443;53.164;5.802;2023-03-15T10:30:38;101874.56;;;5.71;100.00
52535;BME280;38443;53.164;5.802;2023-03-15T10:35:49;101883.16;;;5.41;100.00
52535;BME280;38443;53.164;5.802;2023-03-15T10:38:15;101888.38;;;5.27;100.00
52535;BME280;38443;53.164;5.802;2023-03-15T10:43:30;101894.50;;;5.25;100.00
52535;BME280;38443;53.164;5.802;2023-03-15T10:46:07;101889.06;;;5.08;100.00
52535;BME280;38443;53.164;5.802;2023-03-15T10:48:33;101901.28;;;4.95;100.00
52535;BME280;38443;53.164;5.802;2023-03-15T10:51:28;101905.81;;;5.04;100.00
52535;BME280;38443;53.164;5.802;2023-03-15T10:57:05;101895.16;;;5.00;100.00
52535;BME280;38443;53.164;5.802;2023-03-15T10:59:36;101898.00;;;5.17;100.00
52535;BME280;38443;53.164;5.802;2023-03-15T11:04:40;101904.53;;;5.56;100.00
52535;BME280;38443;53.164;5.802;2023-03-15T11:07:05;101899.31;;;5.67;100.00
52535;BME280;38443;53.164;5.802;2023-03-15T11:09:46;101901.16;;;5.76;100.00
52535;BME280;38443;53.164;5.802;2023-03-15T11:12:23;101904.78;;;5.87;100.00
52535;BME280;38443;53.164;5.802;2023-03-15T11:14:55;101907.56;;;6.03;100.00
52535;BME280;38443;53.164;5.802;2023-03-15T11:17:23;101905.84;;;6.09;100.00
52535;BME280;38443;53.164;5.802;2023-03-15T11:19:55;101915.63;;;6.12;100.00
52535;BME280;38443;53.164;5.802;2023-03-15T11:22:21;101916.47;;;6.11;100.00
52535;BME280;38443;53.164;5.802;2023-03-15T11:24:46;101918.06;;;5.89;100.00
52535;BME280;38443;53.164;5.802;2023-03-15T11:27:15;101917.19;;;5.88;100.00
52535;BME280;38443;53.164;5.802;2023-03-15T11:29:45;101918.97;;;5.91;100.00
52535;BME280;38443;53.164;5.802;2023-03-15T11:32:18;101917.31;;;5.97;100.00
52535;BME280;38443;53.164;5.802;2023-03-15T11:40:22;101925.94;;;5.73;100.00
52535;BME280;38443;53.164;5.802;2023-03-15T11:45:43;101916.25;;;5.83;100.00
52535;BME280;38443;53.164;5.802;2023-03-15T11:48:26;101926.97;;;5.94;100.00
52535;BME280;38443;53.164;5.802;2023-03-15T11:50:54;101928.69;;;5.86;100.00
52535;BME280;38443;53.164;5.802;2023-03-15T11:53:20;101919.81;;;5.85;100.00
52535;BME280;38443;53.164;5.802;2023-03-15T11:55:49;101916.28;;;5.86;100.00
52535;BME280;38443;53.164;5.802;2023-03-15T11:58:40;101926.03;;;5.89;100.00
52535;BME280;38443;53.164;5.802;2023-03-15T12:01:10;101918.91;;;5.82;100.00
52535;BME280;38443;53.164;5.802;2023-03-15T12:03:41;101921.53;;;5.75;100.00
52535;BME280;38443;53.164;5.802;2023-03-15T12:08:47;101913.53;;;5.69;100.00
52535;BME280;38443;53.164;5.802;2023-03-15T12:14:20;101917.97;;;5.72;100.00
52535;BME280;38443;53.164;5.802;2023-03-15T12:16:48;101930.28;;;5.65;100.00
52535;BME280;38443;53.164;5.802;2023-03-15T12:19:14;101924.06;;;5.63;100.00
52535;BME280;38443;53.164;5.802;2023-03-15T12:21:45;101929.44;;;5.68;100.00
52535;BME280;38443;53.164;5.802;2023-03-15T12:24:24;101925.88;;;5.69;100.00
52535;BME280;38443;53.164;5.802;2023-03-15T12:27:17;101925.88;;;5.66;100.00
52535;BME280;38443;53.164;5.802;2023-03-15T12:29:45;101927.72;;;5.76;100.00
52535;BME280;38443;53.164;5.802;2023-03-15T12:32:16;101925.94;;;5.73;100.00
52535;BME280;38443;53.164;5.802;2023-03-15T12:34:50;101931.25;;;5.72;100.00
52535;BME280;38443;53.164;5.802;2023-03-15T12:37:24;101932.13;;;5.72;100.00
52535;BME280;38443;53.164;5.802;2023-03-15T12:40:00;101930.34;;;5.71;100.00
52535;BME280;38443;53.164;5.802;2023-03-15T12:55:56;101928.59;;;5.72;97.58
52535;BME280;38443;53.164;5.802;2023-03-15T12:58:28;101933.88;;;5.70;100.00
52535;BME280;38443;53.164;5.802;2023-03-15T13:01:03;101942.72;;;5.68;100.00
52535;BME280;38443;53.164;5.802;2023-03-15T13:03:29;101938.34;;;5.74;100.00
52535;BME280;38443;53.164;5.802;2023-03-15T13:19:42;101932.94;;;5.62;90.75
52535;BME280;38443;53.164;5.802;2023-03-15T13:22:28;101933.81;;;5.64;100.00
52535;BME280;38443;53.164;5.802;2023-03-15T13:27:51;101935.66;;;5.70;100.00
52535;BME280;38443;53.164;5.802;2023-03-15T13:30:34;101933.06;;;5.77;100.00
52535;BME280;38443;53.164;5.802;2023-03-15T13:33:05;101933.97;;;5.83;100.00
52535;BME280;38443;53.164;5.802;2023-03-15T13:35:31;101933.94;;;5.81;100.00
52535;BME280;38443;53.164;5.802;2023-03-15T13:38:05;101935.75;;;5.82;100.00
52535;BME280;38443;53.164;5.802;2023-03-15T13:40:31;101934.84;;;5.80;100.00
52535;BME280;38443;53.164;5.802;2023-03-15T13:42:58;101934.81;;;5.77;100.00
52535;BME280;38443;53.164;5.802;2023-03-15T13:45:24;101934.81;;;5.77;100.00
52535;BME280;38443;53.164;5.802;2023-03-15T13:47:49;101935.66;;;5.73;100.00
52535;BME280;38443;53.164;5.802;2023-03-15T13:50:19;101936.56;;;5.76;100.00
52535;BME280;38443;53.164;5.802;2023-03-15T13:52:45;101930.38;;;5.76;100.00
52535;BME280;38443;53.164;5.802;2023-03-15T13:55:14;101935.66;;;5.73;100.00
52535;BME280;38443;53.164;5.802;2023-03-15T13:57:40;101932.13;;;5.72;100.00
52535;BME280;38443;53.164;5.802;2023-03-15T14:00:09;101931.19;;;5.66;100.00
52535;BME280;38443;53.164;5.802;2023-03-15T14:02:57;101930.28;;;5.65;100.00